ADDS METAR Data INFO
IDs: Format: Raw Decoded Include TAF

Data at: 2305 UTC 16 Jan 2018

KI75 162255Z AUTO 31005KT 10SM CLR M14/M17 A3066 RMK AO2 T11441175
KI75 162235Z AUTO 28007KT 10SM SCT015 M14/M17 A3065 RMK AO2 T11411173
KI75 162215Z AUTO 29008KT 5SM HZ OVC015 M14/M17 A3066 RMK AO2 T11371166
KI75 162155Z AUTO 30008KT 5SM HZ BKN015 M14/M17 A3066 RMK AO2 T11371169
KI75 162135Z AUTO 30010KT 10SM CLR M13/M17 A3066 RMK AO2 T11351175
KI75 162115Z AUTO 30010KT 10SM CLR M13/M18 A3066 RMK AO2 T11351180
KI75 162055Z AUTO 30009KT 10SM CLR M14/M18 A3066 RMK AO2 T11361182
KI75 162035Z AUTO 29010KT 10SM CLR M14/M18 A3066 RMK AO2 T11361182
KI75 162015Z AUTO 29008KT 10SM CLR M14/M18 A3066 RMK AO2 T11381184
KI75 161955Z AUTO 29010KT 10SM CLR M14/M18 A3065 RMK AO2 T11381185
KI75 161935Z AUTO 31009KT 10SM CLR M14/M19 A3065 RMK AO2 T11401188
KI75 161915Z AUTO 29009KT 10SM CLR M14/M19 A3065 RMK AO2 T11411190
KI75 161855Z AUTO 29009KT 10SM CLR M14/M19 A3065 RMK AO2 T11451190
KI75 161835Z AUTO 32009KT 10SM CLR M15/M19 A3066 RMK AO2 T11501195
KI75 161815Z AUTO 30007KT 10SM CLR M15/M20 A3067 RMK AO2 T11511196
KI75 161755Z AUTO 32010KT 10SM CLR M16/M20 A3068 RMK AO2 T11561200 11156 21198
KI75 161735Z AUTO 30011G15KT 10SM SCT050 M16/M20 A3069 RMK AO2 T11601201
KI75 161715Z AUTO 31013G16KT 5SM -SN BKN050 M16/M20 A3069 RMK AO2 T11611200
KI75 161655Z AUTO 31009KT 10SM OVC050 M17/M21 A3070 RMK AO2 T11661206
KI75 161635Z AUTO 32012G16KT 10SM SCT055 M17/M20 A3070 RMK AO2 T11661205
KI75 161615Z AUTO 32011G18KT 10SM CLR M17/M21 A3070 RMK AO2 T11701210
KI75 161555Z AUTO 32013G17KT 10SM SCT017 SCT024 SCT030 M18/M21 A3068 RMK AO2 T11761211
KI75 161535Z AUTO 31012KT 7SM -SN BKN017 BKN026 OVC055 M18/M21 A3068 RMK AO2 T11771210
KI75 161515Z AUTO 31009KT 7SM OVC017 M18/M21 A3067 RMK AO2 T11811213
KI75 161455Z AUTO 31010KT 10SM OVC017 M18/M22 A3067 RMK AO2 T11851216
KI75 161435Z AUTO 30009KT 10SM BKN019 BKN055 M19/M22 A3066 RMK AO2 T11901221
KI75 161415Z AUTO 31008KT 7SM -SN SCT055 M20/M23 A3066 RMK AO2 T11971226
KI75 161355Z AUTO 32009KT 10SM CLR M20/M23 A3065 RMK AO2 T11971226
KI75 161335Z AUTO 31009KT 10SM SCT050 M19/M22 A3065 RMK AO2 T11951225
KI75 161315Z AUTO 32012G16KT 7SM -SN CLR M19/M22 A3064 RMK AO2 T11941223
KI75 161255Z AUTO 32010KT 10SM -SN SCT013 M19/M22 A3064 RMK AO2 T11931223
KI75 161235Z AUTO 32012G17KT 10SM BKN013 OVC034 M19/M22 A3063 RMK AO2 T11921225
KI75 161215Z AUTO 32012G17KT 10SM -SN SCT013 SCT020 BKN036 M19/M22 A3063 RMK AO2 T11921225
KI75 161155Z AUTO 31011G19KT 10SM BKN022 OVC038 M19/M22 A3062 RMK AO2 T11911225 11190 21212
KI75 161135Z AUTO 30017G20KT 10SM OVC022 M19/M22 A3061 RMK AO2 T11901225
KI75 161115Z AUTO 31014G20KT 10SM OVC024 M19/M22 A3062 RMK AO2 T11911225
KI75 161055Z AUTO 31011KT 10SM OVC024 M19/M23 A3062 RMK AO2 T11951226
KI75 161035Z AUTO 30012G15KT 10SM OVC024 M20/M23 A3062 RMK AO2 T12011232
KI75 161015Z AUTO 30010KT 10SM BKN024 M21/M24 A3062 RMK AO2 T12071240
KI75 160955Z AUTO 30008KT 10SM CLR M21/M24 A3062 RMK AO2 T12111245
KI75 160935Z AUTO 30009KT 10SM CLR M21/M24 A3062 RMK AO2 T12111245
KI75 160915Z AUTO 30009KT 10SM CLR M21/M24 A3062 RMK AO2 T12101243
KI75 160855Z AUTO 31007KT 10SM CLR M21/M24 A3062 RMK AO2 T12101243
KI75 160835Z AUTO 31006KT 10SM CLR M21/M24 A3061 RMK AO2 T12081241
KI75 160815Z AUTO 31011KT 10SM CLR M21/M24 A3060 RMK AO2 T12061240
KI75 160755Z AUTO 31009G14KT 10SM CLR M21/M24 A3060 RMK AO2 T12061240
KI75 160735Z AUTO 30009KT 10SM CLR M20/M24 A3060 RMK AO2 T12051238
KI75 160715Z AUTO 30009KT 10SM SCT024 M20/M24 A3060 RMK AO2 T12011236
KI75 160655Z AUTO 30010G16KT 10SM BKN024 M20/M23 A3060 RMK AO2 T11981235
KI75 160635Z AUTO 31009KT 10SM SCT024 M20/M23 A3059 RMK AO2 T11981235
KI75 160615Z AUTO 31011KT 10SM CLR M20/M23 A3060 RMK AO2 T11971234
KI75 160555Z AUTO 30011KT 10SM CLR M19/M23 A3060 RMK AO2 T11951232 11173 21195 410271195
KI75 160535Z AUTO 30009KT 10SM CLR M19/M23 A3060 RMK AO2 T11951232
KI75 160515Z AUTO 30012KT 10SM CLR M19/M23 A3060 RMK AO2 T11931230
KI75 160455Z AUTO 31010G14KT 10SM CLR M19/M23 A3060 RMK AO2 T11931230
KI75 160435Z AUTO 30009KT 10SM CLR M19/M23 A3060 RMK AO2 T11921230
KI75 160415Z AUTO 30011KT 10SM CLR M19/M23 A3060 RMK AO2 T11911230
KI75 160355Z AUTO 30011G15KT 10SM CLR M19/M23 A3059 RMK AO2 T11901227
KI75 160335Z AUTO 30011KT 10SM CLR M19/M23 A3059 RMK AO2 T11901228
KI75 160315Z AUTO 30013G17KT 10SM CLR M19/M23 A3057 RMK AO2 T11871227
KI75 160255Z AUTO 31013KT 10SM CLR M19/M23 A3057 RMK AO2 T11861227
KI75 160235Z AUTO 30012G17KT 10SM CLR M18/M23 A3057 RMK AO2 T11851226
KI75 160215Z AUTO 30011G15KT 10SM CLR M18/M22 A3057 RMK AO2 T11831225
KI75 160155Z AUTO 30013KT 10SM SCT019 M18/M22 A3056 RMK AO2 T11811222
KI75 160135Z AUTO 30011G18KT 10SM SCT019 M18/M22 A3056 RMK AO2 T11801221
KI75 160115Z AUTO 30015KT 10SM SCT013 M18/M21 A3055 RMK AO2 T11801215
KI75 160055Z AUTO 30012KT 10SM CLR M18/M22 A3054 RMK AO2 T11781216
KI75 160035Z AUTO 30013KT 10SM CLR M17/M21 A3054 RMK AO2 T11751215
KI75 160015Z AUTO 30014KT 10SM CLR M17/M21 A3053 RMK AO2 T11751214
KI75 152355Z AUTO 30014G18KT 10SM CLR M17/M22 A3053 RMK AO2 T11731218 11146 21173
KI75 152335Z AUTO 30013G18KT 10SM CLR M17/M22 A3053 RMK AO2 T11701217
KI75 152315Z AUTO 30013G22KT 10SM CLR M17/M21 A3052 RMK AO2 T11671213
KI75 152255Z AUTO 30013G17KT 10SM CLR M16/M21 A3051 RMK AO2 T11651211
KI75 152235Z AUTO 30017G23KT 10SM SCT012 SCT021 M16/M20 A3050 RMK AO2 T11611205
KI75 152215Z AUTO 30019G22KT 10SM SCT012 SCT016 BKN022 M16/M21 A3049 RMK AO2 T11601210
KI75 152155Z AUTO 30017G22KT 7SM SCT017 BKN022 M15/M19 A3049 RMK AO2 T11521193
KI75 152135Z AUTO 30020G26KT 10SM BKN021 BKN028 M16/M21 A3048 RMK AO2 T11561208
KI75 152115Z AUTO 31015G22KT 10SM SCT017 BKN024 M15/M21 A3047 RMK AO2 T11511208
KI75 152055Z AUTO 30018G23KT 10SM SCT017 M15/M20 A3046 RMK AO2 T11501204
KI75 152035Z AUTO 30014G21KT 10SM SCT016 SCT023 M15/M20 A3046 RMK AO2 T11491203
KI75 152015Z AUTO 30014G23KT 7SM BKN018 BKN025 M15/M20 A3045 RMK AO2 T11471200
KI75 151955Z AUTO 29019G23KT 7SM BKN018 BKN023 M15/M19 A3044 RMK AO2 T11471193
KI75 151935Z AUTO 29017G28KT 10SM BKN020 BKN025 M15/M20 A3044 RMK AO2 T11461198
KI75 151915Z AUTO 31016G23KT 10SM BKN018 BKN024 M15/M20 A3043 RMK AO2 T11481199
KI75 151855Z AUTO 30016G22KT 10SM SCT018 M15/M20 A3043 RMK AO2 T11471200
KI75 151835Z AUTO 31016G22KT 10SM SCT018 M15/M20 A3043 RMK AO2 T11501202
KI75 151815Z AUTO 30018G23KT 10SM SCT018 M15/M21 A3044 RMK AO2 T11541206
KI75 151755Z AUTO 30017G22KT 10SM BKN020 M16/M21 A3045 RMK AO2 T11571206 11142 21165
KI75 151735Z AUTO 29017G22KT 10SM SCT018 M16/M20 A3045 RMK AO2 T11571204
KI75 151715Z AUTO 31017G22KT 7SM SCT015 BKN021 M16/M21 A3045 RMK AO2 T11571206
KI75 151655Z AUTO 30012G20KT 10SM BKN019 M15/M20 A3045 RMK AO2 T11551201
KI75 151555Z AUTO 30021G26KT 7SM BKN019 M16/M20 A3043 RMK AO2 T11601205
KI75 151535Z AUTO 30017G24KT 7SM BKN019 M16/M20 A3042 RMK AO2 T11611205
KI75 151515Z AUTO 30016G20KT 10SM BKN019 M16/M20 A3041 RMK AO2 T11641205
KI75 151455Z AUTO 30019G22KT 10SM BKN019 BKN025 M16/M21 A3041 RMK AO2 T11631206
KI75 151435Z AUTO 30015G18KT 10SM SCT019 M16/M20 A3040 RMK AO2 T11631202
KI75 151415Z AUTO 30012G18KT 10SM CLR M16/M21 A3038 RMK AO2 T11631208
KI75 151355Z AUTO 30015G21KT 10SM CLR M16/M21 A3037 RMK AO2 T11651208
KI75 151335Z AUTO 29013G19KT 10SM CLR M16/M20 A3036 RMK AO2 T11631205
KI75 151315Z AUTO 30016G23KT 10SM CLR M16/M20 A3035 RMK AO2 T11601202
KI75 151255Z AUTO 30014KT 10SM SCT012 BKN017 BKN023 M15/M19 A3035 RMK AO2 T11551195
KI75 151235Z AUTO 29017G23KT 7SM BKN015 OVC021 M15/M18 A3033 RMK AO2 T11481184
KI75 151215Z AUTO 32013G18KT 5SM HZ BKN017 BKN021 M14/M18 A3033 RMK AO2 T11451179
KI75 151155Z AUTO 32017G22KT 10SM SCT019 SCT026 M14/M18 A3031 RMK AO2 T11421185 11027 21142
KI75 151135Z AUTO 32014G22KT 10SM SCT021 SCT026 M14/M18 A3030 RMK AO2 T11371180
KI75 151115Z AUTO 31017G20KT 10SM SCT021 SCT026 M13/M17 A3030 RMK AO2 T11321173